sensor_id;sensor_type;location;lat;lon;timestamp;P1;durP1;ratioP1;P2;durP2;ratioP2
62693;SDS011;48759;52.544;13.418;2023-03-04T00:02:00;47.93;;;21.70;;
62693;SDS011;48759;52.544;13.418;2023-03-04T00:04:27;43.30;;;18.87;;
62693;SDS011;48759;52.544;13.418;2023-03-04T00:06:54;42.67;;;19.83;;
62693;SDS011;48759;52.544;13.418;2023-03-04T00:09:20;45.80;;;19.90;;
62693;SDS011;48759;52.544;13.418;2023-03-04T00:11:49;44.47;;;19.67;;
62693;SDS011;48759;52.544;13.418;2023-03-04T00:14:15;47.40;;;19.17;;
62693;SDS011;48759;52.544;13.418;2023-03-04T00:16:42;41.83;;;19.20;;
62693;SDS011;48759;52.544;13.418;2023-03-04T00:19:09;37.07;;;18.90;;
62693;SDS011;48759;52.544;13.418;2023-03-04T00:21:36;38.10;;;18.47;;
62693;SDS011;48759;52.544;13.418;2023-03-04T00:24:03;41.43;;;18.60;;
62693;SDS011;48759;52.544;13.418;2023-03-04T00:26:30;48.50;;;19.73;;
62693;SDS011;48759;52.544;13.418;2023-03-04T00:28:58;39.67;;;18.20;;
62693;SDS011;48759;52.544;13.418;2023-03-04T00:31:25;37.20;;;17.60;;
62693;SDS011;48759;52.544;13.418;2023-03-04T00:33:52;40.43;;;20.07;;
62693;SDS011;48759;52.544;13.418;2023-03-04T00:36:19;38.47;;;16.83;;
62693;SDS011;48759;52.544;13.418;2023-03-04T00:38:45;33.47;;;17.23;;
62693;SDS011;48759;52.544;13.418;2023-03-04T00:41:12;41.37;;;18.07;;
62693;SDS011;48759;52.544;13.418;2023-03-04T00:43:39;30.70;;;15.73;;
62693;SDS011;48759;52.544;13.418;2023-03-04T00:46:07;34.40;;;15.20;;
62693;SDS011;48759;52.544;13.418;2023-03-04T00:48:34;37.67;;;17.63;;
62693;SDS011;48759;52.544;13.418;2023-03-04T00:51:02;33.80;;;15.67;;
62693;SDS011;48759;52.544;13.418;2023-03-04T00:53:29;37.50;;;14.50;;
62693;SDS011;48759;52.544;13.418;2023-03-04T00:55:56;33.20;;;14.83;;
62693;SDS011;48759;52.544;13.418;2023-03-04T00:58:23;33.40;;;15.10;;
62693;SDS011;48759;52.544;13.418;2023-03-04T01:00:49;34.73;;;14.97;;
62693;SDS011;48759;52.544;13.418;2023-03-04T01:03:17;31.20;;;13.40;;
62693;SDS011;48759;52.544;13.418;2023-03-04T01:05:44;34.97;;;14.43;;
62693;SDS011;48759;52.544;13.418;2023-03-04T01:08:11;30.77;;;13.47;;
62693;SDS011;48759;52.544;13.418;2023-03-04T01:10:37;30.07;;;12.37;;
62693;SDS011;48759;52.544;13.418;2023-03-04T01:13:04;42.10;;;13.30;;
62693;SDS011;48759;52.544;13.418;2023-03-04T01:15:31;27.60;;;11.80;;
62693;SDS011;48759;52.544;13.418;2023-03-04T01:17:58;37.57;;;13.30;;
62693;SDS011;48759;52.544;13.418;2023-03-04T01:20:26;27.40;;;11.50;;
62693;SDS011;48759;52.544;13.418;2023-03-04T01:22:52;32.43;;;13.70;;
62693;SDS011;48759;52.544;13.418;2023-03-04T01:25:19;28.30;;;10.70;;
62693;SDS011;48759;52.544;13.418;2023-03-04T01:27:46;24.13;;;10.90;;
62693;SDS011;48759;52.544;13.418;2023-03-04T01:30:13;32.70;;;11.00;;
62693;SDS011;48759;52.544;13.418;2023-03-04T01:32:40;24.83;;;11.50;;
62693;SDS011;48759;52.544;13.418;2023-03-04T01:35:07;24.90;;;10.90;;
62693;SDS011;48759;52.544;13.418;2023-03-04T01:37:35;31.20;;;10.57;;
62693;SDS011;48759;52.544;13.418;2023-03-04T01:40:02;29.57;;;9.70;;
62693;SDS011;48759;52.544;13.418;2023-03-04T01:42:31;19.57;;;9.27;;
62693;SDS011;48759;52.544;13.418;2023-03-04T01:45:00;29.43;;;9.70;;
62693;SDS011;48759;52.544;13.418;2023-03-04T01:47:28;25.27;;;10.40;;
62693;SDS011;48759;52.544;13.418;2023-03-04T01:49:58;26.37;;;9.47;;
62693;SDS011;48759;52.544;13.418;2023-03-04T01:52:27;22.10;;;8.70;;
62693;SDS011;48759;52.544;13.418;2023-03-04T01:54:55;25.53;;;9.73;;
62693;SDS011;48759;52.544;13.418;2023-03-04T01:57:23;19.70;;;7.70;;
62693;SDS011;48759;52.544;13.418;2023-03-04T02:00:13;13.50;;;7.80;;
62693;SDS011;48759;52.544;13.418;2023-03-04T02:02:44;21.53;;;7.57;;
62693;SDS011;48759;52.544;13.418;2023-03-04T02:05:11;31.67;;;9.80;;
62693;SDS011;48759;52.544;13.418;2023-03-04T02:07:39;23.97;;;8.30;;
62693;SDS011;48759;52.544;13.418;2023-03-04T02:10:08;20.73;;;7.63;;
62693;SDS011;48759;52.544;13.418;2023-03-04T02:12:36;14.93;;;6.97;;
62693;SDS011;48759;52.544;13.418;2023-03-04T02:15:03;24.07;;;7.63;;
62693;SDS011;48759;52.544;13.418;2023-03-04T02:17:31;23.67;;;7.43;;
62693;SDS011;48759;52.544;13.418;2023-03-04T02:19:59;23.57;;;7.43;;
62693;SDS011;48759;52.544;13.418;2023-03-04T02:22:31;23.90;;;7.27;;
62693;SDS011;48759;52.544;13.418;2023-03-04T02:25:02;21.20;;;7.90;;
62693;SDS011;48759;52.544;13.418;2023-03-04T02:27:36;25.80;;;7.77;;
62693;SDS011;48759;52.544;13.418;2023-03-04T02:30:03;26.67;;;7.50;;
62693;SDS011;48759;52.544;13.418;2023-03-04T02:32:31;23.93;;;7.53;;
62693;SDS011;48759;52.544;13.418;2023-03-04T02:34:58;24.07;;;8.17;;
62693;SDS011;48759;52.544;13.418;2023-03-04T02:37:24;19.83;;;7.50;;
62693;SDS011;48759;52.544;13.418;2023-03-04T02:39:51;15.70;;;5.97;;
62693;SDS011;48759;52.544;13.418;2023-03-04T02:42:18;23.20;;;6.40;;
62693;SDS011;48759;52.544;13.418;2023-03-04T02:44:46;20.73;;;7.80;;
62693;SDS011;48759;52.544;13.418;2023-03-04T02:47:15;22.70;;;6.57;;
62693;SDS011;48759;52.544;13.418;2023-03-04T02:49:43;23.37;;;6.70;;
62693;SDS011;48759;52.544;13.418;2023-03-04T02:52:12;16.13;;;6.50;;
62693;SDS011;48759;52.544;13.418;2023-03-04T02:54:40;15.77;;;6.13;;
62693;SDS011;48759;52.544;13.418;2023-03-04T02:57:08;15.07;;;6.60;;
62693;SDS011;48759;52.544;13.418;2023-03-04T02:59:37;20.37;;;6.80;;
62693;SDS011;48759;52.544;13.418;2023-03-04T03:02:06;25.00;;;6.97;;
62693;SDS011;48759;52.544;13.418;2023-03-04T03:04:34;16.10;;;6.73;;
62693;SDS011;48759;52.544;13.418;2023-03-04T03:07:03;23.10;;;7.23;;
62693;SDS011;48759;52.544;13.418;2023-03-04T03:09:30;18.07;;;6.70;;
62693;SDS011;48759;52.544;13.418;2023-03-04T03:11:56;17.67;;;5.37;;
62693;SDS011;48759;52.544;13.418;2023-03-04T03:14:23;21.23;;;8.13;;
62693;SDS011;48759;52.544;13.418;2023-03-04T03:16:50;28.13;;;6.10;;
62693;SDS011;48759;52.544;13.418;2023-03-04T03:19:18;21.73;;;6.33;;
62693;SDS011;48759;52.544;13.418;2023-03-04T03:21:45;17.53;;;6.00;;
62693;SDS011;48759;52.544;13.418;2023-03-04T03:24:11;15.23;;;5.50;;
62693;SDS011;48759;52.544;13.418;2023-03-04T03:26:38;22.20;;;5.80;;
62693;SDS011;48759;52.544;13.418;2023-03-04T03:29:05;13.23;;;6.33;;
62693;SDS011;48759;52.544;13.418;2023-03-04T03:31:32;24.53;;;5.90;;
62693;SDS011;48759;52.544;13.418;2023-03-04T03:33:58;16.33;;;6.23;;
62693;SDS011;48759;52.544;13.418;2023-03-04T03:36:27;26.77;;;7.00;;
62693;SDS011;48759;52.544;13.418;2023-03-04T03:38:53;17.07;;;5.93;;
62693;SDS011;48759;52.544;13.418;2023-03-04T03:41:20;17.60;;;5.77;;
62693;SDS011;48759;52.544;13.418;2023-03-04T03:43:47;15.83;;;5.87;;
62693;SDS011;48759;52.544;13.418;2023-03-04T03:46:13;22.73;;;6.70;;
62693;SDS011;48759;52.544;13.418;2023-03-04T03:48:40;18.03;;;5.00;;
62693;SDS011;48759;52.544;13.418;2023-03-04T03:51:07;15.83;;;6.07;;
62693;SDS011;48759;52.544;13.418;2023-03-04T03:53:35;17.10;;;5.50;;
62693;SDS011;48759;52.544;13.418;2023-03-04T03:56:02;12.00;;;5.10;;
62693;SDS011;48759;52.544;13.418;2023-03-04T03:58:28;17.20;;;5.93;;
62693;SDS011;48759;52.544;13.418;2023-03-04T04:00:55;18.13;;;5.27;;
62693;SDS011;48759;52.544;13.418;2023-03-04T04:03:22;25.67;;;6.90;;
62693;SDS011;48759;52.544;13.418;2023-03-04T04:05:49;12.87;;;4.70;;
62693;SDS011;48759;52.544;13.418;2023-03-04T04:08:16;17.27;;;5.90;;
62693;SDS011;48759;52.544;13.418;2023-03-04T04:10:45;14.53;;;5.10;;
62693;SDS011;48759;52.544;13.418;2023-03-04T04:13:11;14.70;;;4.53;;
62693;SDS011;48759;52.544;13.418;2023-03-04T04:15:38;14.30;;;5.10;;
62693;SDS011;48759;52.544;13.418;2023-03-04T04:18:05;22.00;;;4.60;;
62693;SDS011;48759;52.544;13.418;2023-03-04T04:20:32;18.80;;;4.73;;
62693;SDS011;48759;52.544;13.418;2023-03-04T04:22:59;20.70;;;4.90;;
62693;SDS011;48759;52.544;13.418;2023-03-04T04:25:26;13.13;;;5.10;;
62693;SDS011;48759;52.544;13.418;2023-03-04T04:27:54;13.40;;;3.80;;
62693;SDS011;48759;52.544;13.418;2023-03-04T04:30:21;15.67;;;4.63;;
62693;SDS011;48759;52.544;13.418;2023-03-04T04:32:48;16.40;;;4.40;;
62693;SDS011;48759;52.544;13.418;2023-03-04T04:35:15;12.80;;;4.53;;
62693;SDS011;48759;52.544;13.418;2023-03-04T04:37:41;12.23;;;4.70;;
62693;SDS011;48759;52.544;13.418;2023-03-04T04:40:08;16.40;;;5.97;;
62693;SDS011;48759;52.544;13.418;2023-03-04T04:42:36;17.83;;;5.00;;
62693;SDS011;48759;52.544;13.418;2023-03-04T04:45:05;10.50;;;4.33;;
62693;SDS011;48759;52.544;13.418;2023-03-04T04:47:33;12.17;;;4.40;;
62693;SDS011;48759;52.544;13.418;2023-03-04T04:49:59;22.70;;;4.97;;
62693;SDS011;48759;52.544;13.418;2023-03-04T04:52:26;11.23;;;5.10;;
62693;SDS011;48759;52.544;13.418;2023-03-04T04:54:53;18.97;;;4.80;;
62693;SDS011;48759;52.544;13.418;2023-03-04T04:57:19;8.20;;;2.90;;
62693;SDS011;48759;52.544;13.418;2023-03-04T04:59:46;19.90;;;4.33;;
62693;SDS011;48759;52.544;13.418;2023-03-04T05:02:14;12.63;;;2.90;;
62693;SDS011;48759;52.544;13.418;2023-03-04T05:04:41;10.20;;;4.00;;
62693;SDS011;48759;52.544;13.418;2023-03-04T05:07:08;18.77;;;3.83;;
62693;SDS011;48759;52.544;13.418;2023-03-04T05:09:34;9.87;;;3.73;;
62693;SDS011;48759;52.544;13.418;2023-03-04T05:12:01;14.23;;;3.20;;
62693;SDS011;48759;52.544;13.418;2023-03-04T05:14:28;14.00;;;3.37;;
62693;SDS011;48759;52.544;13.418;2023-03-04T05:16:55;5.80;;;3.00;;
62693;SDS011;48759;52.544;13.418;2023-03-04T05:19:23;15.07;;;4.50;;
62693;SDS011;48759;52.544;13.418;2023-03-04T05:21:50;9.97;;;3.43;;
62693;SDS011;48759;52.544;13.418;2023-03-04T05:24:17;12.97;;;3.27;;
62693;SDS011;48759;52.544;13.418;2023-03-04T05:26:44;10.10;;;3.43;;
62693;SDS011;48759;52.544;13.418;2023-03-04T05:29:11;10.27;;;3.00;;
62693;SDS011;48759;52.544;13.418;2023-03-04T05:31:37;9.33;;;3.50;;
62693;SDS011;48759;52.544;13.418;2023-03-04T05:34:04;13.90;;;3.30;;
62693;SDS011;48759;52.544;13.418;2023-03-04T05:36:32;4.97;;;2.80;;
62693;SDS011;48759;52.544;13.418;2023-03-04T05:38:59;8.17;;;2.77;;
62693;SDS011;48759;52.544;13.418;2023-03-04T05:41:25;8.37;;;2.80;;
62693;SDS011;48759;52.544;13.418;2023-03-04T05:43:52;13.47;;;3.37;;
62693;SDS011;48759;52.544;13.418;2023-03-04T05:46:20;8.33;;;3.10;;
62693;SDS011;48759;52.544;13.418;2023-03-04T05:48:49;7.50;;;3.10;;
62693;SDS011;48759;52.544;13.418;2023-03-04T05:51:17;13.20;;;3.63;;
62693;SDS011;48759;52.544;13.418;2023-03-04T05:53:46;5.03;;;2.80;;
62693;SDS011;48759;52.544;13.418;2023-03-04T05:56:14;8.80;;;4.03;;
62693;SDS011;48759;52.544;13.418;2023-03-04T05:58:41;12.57;;;4.30;;
62693;SDS011;48759;52.544;13.418;2023-03-04T06:01:08;11.67;;;3.53;;
62693;SDS011;48759;52.544;13.418;2023-03-04T06:03:35;10.80;;;3.20;;
62693;SDS011;48759;52.544;13.418;2023-03-04T06:06:02;12.90;;;3.87;;
62693;SDS011;48759;52.544;13.418;2023-03-04T06:08:30;10.70;;;3.00;;
62693;SDS011;48759;52.544;13.418;2023-03-04T06:11:02;9.77;;;3.83;;
62693;SDS011;48759;52.544;13.418;2023-03-04T06:13:29;5.83;;;2.60;;
62693;SDS011;48759;52.544;13.418;2023-03-04T06:15:57;10.17;;;3.40;;
62693;SDS011;48759;52.544;13.418;2023-03-04T06:18:25;6.80;;;3.13;;
62693;SDS011;48759;52.544;13.418;2023-03-04T06:20:54;8.40;;;2.90;;
62693;SDS011;48759;52.544;13.418;2023-03-04T06:23:21;7.23;;;2.90;;
62693;SDS011;48759;52.544;13.418;2023-03-04T06:25:50;6.33;;;3.40;;
62693;SDS011;48759;52.544;13.418;2023-03-04T06:28:19;15.67;;;3.60;;
62693;SDS011;48759;52.544;13.418;2023-03-04T06:30:45;13.70;;;3.10;;
62693;SDS011;48759;52.544;13.418;2023-03-04T06:33:12;8.87;;;2.97;;
62693;SDS011;48759;52.544;13.418;2023-03-04T06:35:39;12.23;;;3.30;;
62693;SDS011;48759;52.544;13.418;2023-03-04T06:38:06;7.27;;;3.07;;
62693;SDS011;48759;52.544;13.418;2023-03-04T06:40:32;8.93;;;3.20;;
62693;SDS011;48759;52.544;13.418;2023-03-04T06:42:59;6.43;;;2.70;;
62693;SDS011;48759;52.544;13.418;2023-03-04T06:45:27;14.70;;;3.37;;
62693;SDS011;48759;52.544;13.418;2023-03-04T06:47:54;7.43;;;2.60;;
62693;SDS011;48759;52.544;13.418;2023-03-04T06:50:21;15.13;;;3.00;;
62693;SDS011;48759;52.544;13.418;2023-03-04T06:52:47;7.27;;;3.40;;
62693;SDS011;48759;52.544;13.418;2023-03-04T06:55:14;14.33;;;3.53;;
62693;SDS011;48759;52.544;13.418;2023-03-04T06:57:41;15.00;;;3.60;;
62693;SDS011;48759;52.544;13.418;2023-03-04T07:00:08;10.30;;;3.10;;
62693;SDS011;48759;52.544;13.418;2023-03-04T07:02:37;10.57;;;3.10;;
62693;SDS011;48759;52.544;13.418;2023-03-04T07:05:04;9.13;;;3.10;;
62693;SDS011;48759;52.544;13.418;2023-03-04T07:07:31;7.33;;;2.97;;
62693;SDS011;48759;52.544;13.418;2023-03-04T07:09:57;9.50;;;3.07;;
62693;SDS011;48759;52.544;13.418;2023-03-04T07:12:24;7.50;;;2.57;;
62693;SDS011;48759;52.544;13.418;2023-03-04T07:14:51;14.00;;;3.00;;
62693;SDS011;48759;52.544;13.418;2023-03-04T07:17:18;6.73;;;2.90;;
62693;SDS011;48759;52.544;13.418;2023-03-04T07:19:46;13.03;;;3.10;;
62693;SDS011;48759;52.544;13.418;2023-03-04T07:22:12;6.07;;;2.77;;
62693;SDS011;48759;52.544;13.418;2023-03-04T07:24:39;8.13;;;2.90;;
62693;SDS011;48759;52.544;13.418;2023-03-04T07:27:06;6.47;;;2.33;;
62693;SDS011;48759;52.544;13.418;2023-03-04T07:29:33;9.63;;;2.80;;
62693;SDS011;48759;52.544;13.418;2023-03-04T07:32:00;10.17;;;2.60;;
62693;SDS011;48759;52.544;13.418;2023-03-04T07:34:26;9.37;;;3.17;;
62693;SDS011;48759;52.544;13.418;2023-03-04T07:36:54;8.53;;;2.90;;
62693;SDS011;48759;52.544;13.418;2023-03-04T07:39:21;4.17;;;2.70;;
62693;SDS011;48759;52.544;13.418;2023-03-04T07:41:47;10.33;;;2.87;;
62693;SDS011;48759;52.544;13.418;2023-03-04T07:44:14;15.93;;;3.47;;
62693;SDS011;48759;52.544;13.418;2023-03-04T07:46:41;7.63;;;2.40;;
62693;SDS011;48759;52.544;13.418;2023-03-04T07:49:09;9.97;;;2.40;;
62693;SDS011;48759;52.544;13.418;2023-03-04T07:51:37;5.90;;;2.83;;
62693;SDS011;48759;52.544;13.418;2023-03-04T07:54:05;5.47;;;2.77;;
62693;SDS011;48759;52.544;13.418;2023-03-04T07:56:32;4.50;;;2.97;;
62693;SDS011;48759;52.544;13.418;2023-03-04T07:58:59;9.83;;;3.20;;
62693;SDS011;48759;52.544;13.418;2023-03-04T08:01:28;8.60;;;2.23;;
62693;SDS011;48759;52.544;13.418;2023-03-04T08:03:56;6.90;;;2.80;;
62693;SDS011;48759;52.544;13.418;2023-03-04T08:06:24;3.23;;;2.23;;
62693;SDS011;48759;52.544;13.418;2023-03-04T08:08:55;7.60;;;2.77;;
62693;SDS011;48759;52.544;13.418;2023-03-04T08:11:24;2.97;;;2.30;;
62693;SDS011;48759;52.544;13.418;2023-03-04T08:13:52;7.73;;;2.17;;
62693;SDS011;48759;52.544;13.418;2023-03-04T08:16:20;4.33;;;2.50;;
62693;SDS011;48759;52.544;13.418;2023-03-04T08:18:48;3.03;;;2.30;;
62693;SDS011;48759;52.544;13.418;2023-03-04T08:21:18;3.27;;;2.27;;
62693;SDS011;48759;52.544;13.418;2023-03-04T08:23:46;6.93;;;3.23;;
62693;SDS011;48759;52.544;13.418;2023-03-04T08:26:14;5.83;;;2.30;;
62693;SDS011;48759;52.544;13.418;2023-03-04T08:28:44;6.43;;;1.93;;
62693;SDS011;48759;52.544;13.418;2023-03-04T08:31:11;7.47;;;2.30;;
62693;SDS011;48759;52.544;13.418;2023-03-04T08:33:39;2.50;;;2.10;;
62693;SDS011;48759;52.544;13.418;2023-03-04T08:36:06;2.50;;;1.70;;
62693;SDS011;48759;52.544;13.418;2023-03-04T08:38:33;9.33;;;2.63;;
62693;SDS011;48759;52.544;13.418;2023-03-04T08:41:00;5.17;;;1.90;;
62693;SDS011;48759;52.544;13.418;2023-03-04T08:43:27;6.23;;;2.63;;
62693;SDS011;48759;52.544;13.418;2023-03-04T08:45:55;12.40;;;2.40;;
62693;SDS011;48759;52.544;13.418;2023-03-04T08:48:22;2.80;;;1.73;;
62693;SDS011;48759;52.544;13.418;2023-03-04T08:50:49;9.57;;;2.87;;
62693;SDS011;48759;52.544;13.418;2023-03-04T08:53:16;4.73;;;2.13;;
62693;SDS011;48759;52.544;13.418;2023-03-04T08:55:44;9.33;;;2.20;;
62693;SDS011;48759;52.544;13.418;2023-03-04T08:58:11;7.37;;;2.30;;
62693;SDS011;48759;52.544;13.418;2023-03-04T09:00:39;3.60;;;2.07;;
62693;SDS011;48759;52.544;13.418;2023-03-04T09:03:10;5.90;;;2.00;;
62693;SDS011;48759;52.544;13.418;2023-03-04T09:05:37;8.33;;;2.53;;
62693;SDS011;48759;52.544;13.418;2023-03-04T09:08:04;6.13;;;1.97;;
62693;SDS011;48759;52.544;13.418;2023-03-04T09:10:31;4.90;;;2.03;;
62693;SDS011;48759;52.544;13.418;2023-03-04T09:12:57;9.53;;;2.50;;
62693;SDS011;48759;52.544;13.418;2023-03-04T09:15:25;5.77;;;1.97;;
62693;SDS011;48759;52.544;13.418;2023-03-04T09:17:51;5.90;;;2.10;;
62693;SDS011;48759;52.544;13.418;2023-03-04T09:20:20;5.47;;;1.67;;
62693;SDS011;48759;52.544;13.418;2023-03-04T09:22:47;9.30;;;2.50;;
62693;SDS011;48759;52.544;13.418;2023-03-04T09:25:14;4.27;;;2.10;;
62693;SDS011;48759;52.544;13.418;2023-03-04T09:27:40;6.93;;;1.90;;
62693;SDS011;48759;52.544;13.418;2023-03-04T09:30:07;4.63;;;2.73;;
62693;SDS011;48759;52.544;13.418;2023-03-04T09:32:35;8.17;;;1.77;;
62693;SDS011;48759;52.544;13.418;2023-03-04T09:35:02;5.10;;;2.00;;
62693;SDS011;48759;52.544;13.418;2023-03-04T09:37:30;9.23;;;2.20;;
62693;SDS011;48759;52.544;13.418;2023-03-04T09:39:57;5.93;;;2.10;;
62693;SDS011;48759;52.544;13.418;2023-03-04T09:42:24;5.23;;;1.87;;
62693;SDS011;48759;52.544;13.418;2023-03-04T09:44:55;13.40;;;2.67;;
62693;SDS011;48759;52.544;13.418;2023-03-04T09:47:22;8.50;;;1.80;;
62693;SDS011;48759;52.544;13.418;2023-03-04T09:49:52;6.03;;;2.40;;
62693;SDS011;48759;52.544;13.418;2023-03-04T09:52:24;2.23;;;1.77;;
62693;SDS011;48759;52.544;13.418;2023-03-04T09:55:03;5.90;;;2.43;;
62693;SDS011;48759;52.544;13.418;2023-03-04T09:57:39;8.33;;;2.40;;
62693;SDS011;48759;52.544;13.418;2023-03-04T10:00:13;11.80;;;2.37;;
62693;SDS011;48759;52.544;13.418;2023-03-04T10:02:46;6.63;;;1.93;;
62693;SDS011;48759;52.544;13.418;2023-03-04T10:05:26;5.67;;;1.97;;
62693;SDS011;48759;52.544;13.418;2023-03-04T10:07:56;8.10;;;2.80;;
62693;SDS011;48759;52.544;13.418;2023-03-04T10:10:27;15.73;;;2.20;;
62693;SDS011;48759;52.544;13.418;2023-03-04T10:12:58;8.27;;;2.37;;
62693;SDS011;48759;52.544;13.418;2023-03-04T10:15:30;9.83;;;2.40;;
62693;SDS011;48759;52.544;13.418;2023-03-04T10:18:01;4.90;;;2.27;;
62693;SDS011;48759;52.544;13.418;2023-03-04T10:20:42;13.50;;;2.10;;
62693;SDS011;48759;52.544;13.418;2023-03-04T10:23:17;8.00;;;2.87;;
62693;SDS011;48759;52.544;13.418;2023-03-04T10:25:47;7.77;;;2.87;;
62693;SDS011;48759;52.544;13.418;2023-03-04T10:28:19;11.30;;;2.57;;
62693;SDS011;48759;52.544;13.418;2023-03-04T10:30:50;4.40;;;2.50;;
62693;SDS011;48759;52.544;13.418;2023-03-04T10:33:24;8.10;;;1.83;;
62693;SDS011;48759;52.544;13.418;2023-03-04T10:35:52;9.07;;;2.30;;
62693;SDS011;48759;52.544;13.418;2023-03-04T10:38:24;8.60;;;2.50;;
62693;SDS011;48759;52.544;13.418;2023-03-04T10:40:52;5.60;;;2.40;;
62693;SDS011;48759;52.544;13.418;2023-03-04T10:43:20;6.30;;;2.83;;
62693;SDS011;48759;52.544;13.418;2023-03-04T10:45:47;5.30;;;2.37;;
62693;SDS011;48759;52.544;13.418;2023-03-04T10:48:16;10.33;;;2.37;;
62693;SDS011;48759;52.544;13.418;2023-03-04T10:50:46;7.40;;;3.03;;
62693;SDS011;48759;52.544;13.418;2023-03-04T10:53:29;7.83;;;2.77;;
62693;SDS011;48759;52.544;13.418;2023-03-04T10:55:59;10.03;;;3.40;;
62693;SDS011;48759;52.544;13.418;2023-03-04T10:58:27;7.73;;;2.93;;
62693;SDS011;48759;52.544;13.418;2023-03-04T11:00:59;11.80;;;3.00;;
62693;SDS011;48759;52.544;13.418;2023-03-04T11:03:29;10.07;;;2.57;;
62693;SDS011;48759;52.544;13.418;2023-03-04T11:06:04;8.60;;;2.33;;
62693;SDS011;48759;52.544;13.418;2023-03-04T11:08:38;10.00;;;3.83;;
62693;SDS011;48759;52.544;13.418;2023-03-04T11:11:19;10.87;;;2.90;;
62693;SDS011;48759;52.544;13.418;2023-03-04T11:13:51;8.60;;;2.60;;
62693;SDS011;48759;52.544;13.418;2023-03-04T11:16:23;9.60;;;3.43;;
62693;SDS011;48759;52.544;13.418;2023-03-04T11:18:52;12.63;;;3.30;;
62693;SDS011;48759;52.544;13.418;2023-03-04T11:21:21;14.60;;;2.80;;
62693;SDS011;48759;52.544;13.418;2023-03-04T11:23:51;12.53;;;3.87;;
62693;SDS011;48759;52.544;13.418;2023-03-04T11:26:22;20.07;;;3.53;;
62693;SDS011;48759;52.544;13.418;2023-03-04T11:28:55;9.73;;;2.47;;
62693;SDS011;48759;52.544;13.418;2023-03-04T11:31:27;13.93;;;3.00;;
62693;SDS011;48759;52.544;13.418;2023-03-04T11:33:59;10.13;;;3.17;;
62693;SDS011;48759;52.544;13.418;2023-03-04T11:36:32;11.83;;;2.73;;
62693;SDS011;48759;52.544;13.418;2023-03-04T11:39:08;13.80;;;3.63;;
62693;SDS011;48759;52.544;13.418;2023-03-04T11:41:44;9.50;;;2.80;;
62693;SDS011;48759;52.544;13.418;2023-03-04T11:44:18;22.17;;;2.90;;
62693;SDS011;48759;52.544;13.418;2023-03-04T11:46:48;9.40;;;3.13;;
62693;SDS011;48759;52.544;13.418;2023-03-04T11:49:28;18.47;;;3.50;;
62693;SDS011;48759;52.544;13.418;2023-03-04T11:52:15;14.40;;;3.43;;
62693;SDS011;48759;52.544;13.418;2023-03-04T11:54:51;19.73;;;4.13;;
62693;SDS011;48759;52.544;13.418;2023-03-04T11:57:32;19.50;;;3.00;;
62693;SDS011;48759;52.544;13.418;2023-03-04T12:00:19;18.73;;;4.20;;
62693;SDS011;48759;52.544;13.418;2023-03-04T12:03:13;16.00;;;2.93;;
62693;SDS011;48759;52.544;13.418;2023-03-04T12:05:53;23.53;;;4.27;;
62693;SDS011;48759;52.544;13.418;2023-03-04T12:08:36;17.70;;;3.20;;
62693;SDS011;48759;52.544;13.418;2023-03-04T12:11:15;12.70;;;3.10;;
62693;SDS011;48759;52.544;13.418;2023-03-04T12:14:15;12.10;;;3.00;;
62693;SDS011;48759;52.544;13.418;2023-03-04T12:19:56;22.43;;;3.67;;
62693;SDS011;48759;52.544;13.418;2023-03-04T12:22:42;16.20;;;3.23;;
62693;SDS011;48759;52.544;13.418;2023-03-04T12:25:32;10.80;;;2.97;;
62693;SDS011;48759;52.544;13.418;2023-03-04T12:28:08;7.57;;;2.33;;
62693;SDS011;48759;52.544;13.418;2023-03-04T12:30:51;16.67;;;3.07;;
62693;SDS011;48759;52.544;13.418;2023-03-04T12:33:32;13.87;;;3.40;;
62693;SDS011;48759;52.544;13.418;2023-03-04T12:36:10;10.37;;;3.50;;
62693;SDS011;48759;52.544;13.418;2023-03-04T12:38:46;11.30;;;3.30;;
62693;SDS011;48759;52.544;13.418;2023-03-04T12:41:26;9.30;;;2.97;;
62693;SDS011;48759;52.544;13.418;2023-03-04T12:44:07;8.07;;;2.27;;
62693;SDS011;48759;52.544;13.418;2023-03-04T12:46:45;10.87;;;3.00;;
62693;SDS011;48759;52.544;13.418;2023-03-04T12:49:31;5.90;;;2.37;;
62693;SDS011;48759;52.544;13.418;2023-03-04T12:52:08;8.03;;;2.77;;
62693;SDS011;48759;52.544;13.418;2023-03-04T12:54:42;16.67;;;4.00;;
62693;SDS011;48759;52.544;13.418;2023-03-04T12:57:12;9.10;;;3.10;;
62693;SDS011;48759;52.544;13.418;2023-03-04T12:59:42;9.50;;;2.50;;
62693;SDS011;48759;52.544;13.418;2023-03-04T13:02:31;12.27;;;2.40;;
62693;SDS011;48759;52.544;13.418;2023-03-04T13:05:16;9.50;;;2.23;;
62693;SDS011;48759;52.544;13.418;2023-03-04T13:07:53;9.33;;;2.60;;
62693;SDS011;48759;52.544;13.418;2023-03-04T13:10:24;10.20;;;2.57;;
62693;SDS011;48759;52.544;13.418;2023-03-04T13:12:52;7.03;;;2.47;;
62693;SDS011;48759;52.544;13.418;2023-03-04T13:15:31;13.03;;;2.60;;
62693;SDS011;48759;52.544;13.418;2023-03-04T13:18:02;7.40;;;2.63;;
62693;SDS011;48759;52.544;13.418;2023-03-04T13:21:03;17.03;;;3.00;;
62693;SDS011;48759;52.544;13.418;2023-03-04T13:23:32;14.70;;;3.20;;
62693;SDS011;48759;52.544;13.418;2023-03-04T13:26:22;9.20;;;2.63;;
62693;SDS011;48759;52.544;13.418;2023-03-04T13:28:54;5.10;;;1.90;;
62693;SDS011;48759;52.544;13.418;2023-03-04T13:34:42;15.73;;;3.30;;
62693;SDS011;48759;52.544;13.418;2023-03-04T13:45:50;9.10;;;3.10;;
62693;SDS011;48759;52.544;13.418;2023-03-04T13:48:22;9.50;;;2.90;;
62693;SDS011;48759;52.544;13.418;2023-03-04T13:50:53;12.37;;;2.03;;
62693;SDS011;48759;52.544;13.418;2023-03-04T13:53:32;9.07;;;2.70;;
62693;SDS011;48759;52.544;13.418;2023-03-04T13:56:24;14.03;;;3.20;;
62693;SDS011;48759;52.544;13.418;2023-03-04T13:59:01;9.93;;;2.73;;
62693;SDS011;48759;52.544;13.418;2023-03-04T14:01:53;7.57;;;2.90;;
62693;SDS011;48759;52.544;13.418;2023-03-04T14:04:26;9.67;;;3.03;;
62693;SDS011;48759;52.544;13.418;2023-03-04T14:06:57;11.57;;;3.00;;
62693;SDS011;48759;52.544;13.418;2023-03-04T14:09:26;11.13;;;3.50;;
62693;SDS011;48759;52.544;13.418;2023-03-04T14:11:55;19.63;;;3.50;;
62693;SDS011;48759;52.544;13.418;2023-03-04T14:14:25;16.70;;;3.40;;
62693;SDS011;48759;52.544;13.418;2023-03-04T14:16:54;11.60;;;3.20;;
62693;SDS011;48759;52.544;13.418;2023-03-04T14:19:24;6.93;;;2.60;;
62693;SDS011;48759;52.544;13.418;2023-03-04T14:21:53;13.40;;;2.90;;
62693;SDS011;48759;52.544;13.418;2023-03-04T14:24:22;14.27;;;2.80;;
62693;SDS011;48759;52.544;13.418;2023-03-04T14:26:49;11.53;;;3.20;;
62693;SDS011;48759;52.544;13.418;2023-03-04T14:29:28;19.20;;;3.37;;
62693;SDS011;48759;52.544;13.418;2023-03-04T14:31:55;6.80;;;2.50;;
62693;SDS011;48759;52.544;13.418;2023-03-04T14:34:24;13.67;;;4.23;;
62693;SDS011;48759;52.544;13.418;2023-03-04T14:36:56;16.70;;;3.50;;
62693;SDS011;48759;52.544;13.418;2023-03-04T14:39:24;15.40;;;3.60;;
62693;SDS011;48759;52.544;13.418;2023-03-04T14:41:54;12.27;;;3.20;;
62693;SDS011;48759;52.544;13.418;2023-03-04T14:44:28;17.00;;;3.00;;
62693;SDS011;48759;52.544;13.418;2023-03-04T14:47:01;25.37;;;3.70;;
62693;SDS011;48759;52.544;13.418;2023-03-04T14:49:35;18.13;;;3.93;;
62693;SDS011;48759;52.544;13.418;2023-03-04T14:52:04;10.10;;;3.53;;
62693;SDS011;48759;52.544;13.418;2023-03-04T14:54:33;14.47;;;3.53;;
62693;SDS011;48759;52.544;13.418;2023-03-04T14:57:15;12.20;;;3.03;;